Time;durP1;ratioP1;P1;durP2;ratioP2;P2;SDS_P1;SDS_P2;PMS_P1;PMS_P2;Temp;Humidity;BMP_temperature;BMP_pressure;BME280_temperature;BME280_humidity;BME280_pressure;Samples;Min_cycle;Max_cycle;Signal;HPM_P1;HPM_P2
2023/10/15 00:01:44;;;;;;;2.10;1.50;;;22.80;59.40;;;;;;5016133;28;20421;-67
2023/10/15 00:04:12;;;;;;;2.17;1.03;;;22.80;59.50;;;;;;5017753;28;20553;-64
2023/10/15 00:06:41;;;;;;;1.90;1.30;;;22.80;59.50;;;;;;5020203;28;20191;-66
2023/10/15 00:09:07;;;;;;;2.37;1.13;;;22.80;59.40;;;;;;5020067;28;20423;-66
2023/10/15 00:11:33;;;;;;;1.90;1.40;;;22.80;59.40;;;;;;5020099;28;20415;-65
2023/10/15 00:13:58;;;;;;;1.97;1.27;;;22.80;59.50;;;;;;5020096;28;20488;-66
2023/10/15 00:16:25;;;;;;;1.80;1.23;;;22.80;59.50;;;;;;5019778;28;20255;-67
2023/10/15 00:18:52;;;;;;;2.10;1.60;;;22.80;59.50;;;;;;5020204;28;20547;-66
2023/10/15 00:21:17;;;;;;;1.40;1.10;;;22.80;60.00;;;;;;5019725;28;20422;-65
2023/10/15 00:23:44;;;;;;;1.77;1.20;;;22.80;59.40;;;;;;5019708;28;20901;-66
2023/10/15 00:26:15;;;;;;;2.17;1.40;;;22.80;59.50;;;;;;5002465;28;20176;-66
2023/10/15 00:28:44;;;;;;;1.30;1.17;;;22.80;59.40;;;;;;5019619;28;20487;-66
2023/10/15 00:31:13;;;;;;;1.20;1.10;;;22.80;59.40;;;;;;5019482;28;20981;-66
2023/10/15 00:33:42;;;;;;;1.57;1.00;;;22.80;59.40;;;;;;5019039;28;20443;-66
2023/10/15 00:36:09;;;;;;;1.80;1.10;;;22.80;59.50;;;;;;5019315;28;20442;-67
2023/10/15 00:38:36;;;;;;;1.40;1.10;;;22.80;59.50;;;;;;5019446;28;20503;-65
2023/10/15 00:41:08;;;;;;;1.50;0.93;;;22.80;59.40;;;;;;5019298;28;20426;-66
2023/10/15 00:43:34;;;;;;;2.00;1.47;;;22.80;59.40;;;;;;5019109;28;20467;-66
2023/10/15 00:46:10;;;;;;;1.20;0.90;;;22.80;59.40;;;;;;5019272;28;20491;-65
2023/10/15 00:48:36;;;;;;;1.70;1.40;;;22.80;59.40;;;;;;5018920;28;20395;-66
2023/10/15 00:51:13;;;;;;;1.77;1.30;;;22.80;59.40;;;;;;5018750;28;20445;-66
2023/10/15 00:53:48;;;;;;;1.50;1.37;;;22.80;59.40;;;;;;5019256;28;20506;-67
2023/10/15 00:56:18;;;;;;;1.57;1.20;;;22.80;59.40;;;;;;5018870;28;20422;-67
2023/10/15 01:03:54;;;;;;;2.63;1.30;;;22.80;59.50;;;;;;5002746;28;20666;-66
2023/10/15 01:06:35;;;;;;;1.70;1.30;;;22.80;59.50;;;;;;5018656;28;20423;-66
2023/10/15 01:09:09;;;;;;;2.17;1.10;;;22.80;59.40;;;;;;5018584;28;20763;-67
2023/10/15 01:11:58;;;;;;;2.10;1.43;;;22.80;59.40;;;;;;5018509;28;20475;-66
2023/10/15 01:14:26;;;;;;;1.40;1.03;;;22.80;59.50;;;;;;5018381;28;20423;-66
2023/10/15 01:16:52;;;;;;;3.77;1.50;;;22.80;59.40;;;;;;5018480;28;20834;-66
2023/10/15 01:19:20;;;;;;;1.20;1.10;;;22.80;59.50;;;;;;5018930;28;20430;-66
2023/10/15 01:21:53;;;;;;;1.37;0.93;;;22.80;59.50;;;;;;5018487;28;20502;-66
2023/10/15 01:24:22;;;;;;;1.83;1.50;;;22.80;59.40;;;;;;5018509;28;20489;-67
2023/10/15 01:26:59;;;;;;;1.20;1.10;;;22.80;59.40;;;;;;5018954;28;20415;-66
2023/10/15 01:29:27;;;;;;;1.27;1.10;;;22.80;59.50;;;;;;5018655;28;20388;-66
2023/10/15 01:31:58;;;;;;;1.80;1.30;;;22.80;59.40;;;;;;5000700;28;20411;-66
2023/10/15 01:34:25;;;;;;;1.37;0.90;;;22.80;59.40;;;;;;5018215;28;20439;-65
2023/10/15 01:36:56;;;;;;;1.63;1.10;;;22.80;59.40;;;;;;5018593;28;20403;-65
2023/10/15 01:39:38;;;;;;;2.57;1.30;;;22.80;59.50;;;;;;5018294;28;20412;-67
2023/10/15 01:42:06;;;;;;;1.37;1.20;;;22.80;59.40;;;;;;5017964;28;20916;-66
2023/10/15 01:44:33;;;;;;;1.90;1.10;;;22.80;59.40;;;;;;5017914;28;20447;-66
2023/10/15 01:49:36;;;;;;;1.50;0.90;;;22.80;59.40;;;;;;5018004;28;20507;-67
2023/10/15 01:52:09;;;;;;;2.10;1.30;;;22.80;59.40;;;;;;5018081;28;20434;-64
2023/10/15 01:54:38;;;;;;;1.50;1.30;;;22.80;59.40;;;;;;5017460;28;20784;-66
2023/10/15 01:57:07;;;;;;;1.60;1.07;;;22.80;59.40;;;;;;5017998;28;20439;-64
2023/10/15 01:59:41;;;;;;;1.50;0.90;;;22.80;59.40;;;;;;5017338;28;20414;-67
2023/10/15 02:02:08;;;;;;;1.63;1.00;;;22.80;59.40;;;;;;5017792;28;20518;-66
2023/10/15 02:04:42;;;;;;;1.20;1.10;;;22.80;59.40;;;;;;5017804;28;20435;-66
2023/10/15 02:07:12;;;;;;;1.67;1.30;;;22.80;59.40;;;;;;5018160;28;20804;-66
2023/10/15 02:09:38;;;;;;;1.30;1.13;;;22.80;59.40;;;;;;5017879;28;20392;-66
2023/10/15 02:12:05;;;;;;;1.90;1.30;;;22.80;59.40;;;;;;5017525;28;20438;-67
2023/10/15 02:14:31;;;;;;;1.20;1.00;;;22.80;59.40;;;;;;5017613;28;20207;-66
2023/10/15 02:16:59;;;;;;;1.50;1.10;;;22.80;59.40;;;;;;5017128;28;20423;-66
2023/10/15 02:19:34;;;;;;;1.83;1.20;;;22.80;59.40;;;;;;5017552;28;20469;-66
2023/10/15 02:22:06;;;;;;;1.50;1.20;;;22.80;59.40;;;;;;5017293;28;20392;-66
2023/10/15 02:24:34;;;;;;;1.87;1.17;;;22.80;59.30;;;;;;5016921;28;20489;-66
2023/10/15 02:27:05;;;;;;;1.53;1.17;;;22.80;59.40;;;;;;5016979;28;20399;-65
2023/10/15 02:32:21;;;;;;;1.30;1.10;;;22.80;59.40;;;;;;5017814;28;20399;-65
2023/10/15 02:34:53;;;;;;;2.10;1.00;;;22.80;59.40;;;;;;5017506;28;20442;-67
2023/10/15 02:37:23;;;;;;;1.07;0.93;;;22.80;59.40;;;;;;5017542;28;20431;-67
2023/10/15 02:39:50;;;;;;;1.37;1.03;;;22.80;59.40;;;;;;5017132;28;20414;-66
2023/10/15 02:42:17;;;;;;;1.67;1.00;;;22.80;59.30;;;;;;5017053;28;20407;-66
2023/10/15 02:44:42;;;;;;;1.20;0.90;;;22.80;59.40;;;;;;5017148;28;20936;-66
2023/10/15 02:47:19;;;;;;;2.07;1.07;;;22.80;59.30;;;;;;5017616;28;20407;-66
2023/10/15 02:49:53;;;;;;;1.53;1.00;;;22.80;59.30;;;;;;5017047;28;20658;-66
2023/10/15 02:52:24;;;;;;;1.60;1.30;;;22.80;59.30;;;;;;5017052;28;20896;-66
2023/10/15 02:54:50;;;;;;;1.87;1.17;;;22.80;59.30;;;;;;5017086;28;20423;-66
2023/10/15 02:57:16;;;;;;;1.23;1.00;;;22.80;59.40;;;;;;5017054;28;20830;-67
2023/10/15 02:59:52;;;;;;;1.63;1.17;;;22.80;59.30;;;;;;5016879;28;20180;-66
2023/10/15 03:02:25;;;;;;;1.30;1.17;;;22.80;59.30;;;;;;5017265;28;20395;-66
2023/10/15 03:04:56;;;;;;;1.73;1.20;;;22.80;59.30;;;;;;5016546;28;20439;-65
2023/10/15 03:07:30;;;;;;;2.23;1.10;;;22.80;59.30;;;;;;5017155;28;20396;-66
2023/10/15 03:09:57;;;;;;;1.40;1.20;;;22.80;59.30;;;;;;4999504;28;20411;-66
2023/10/15 03:12:24;;;;;;;1.50;0.97;;;22.80;59.30;;;;;;5016714;28;20442;-66
2023/10/15 03:14:51;;;;;;;1.87;1.20;;;22.80;59.30;;;;;;5016705;28;20876;-66
2023/10/15 03:17:29;;;;;;;1.20;1.00;;;22.80;59.30;;;;;;5016770;28;20478;-66
2023/10/15 03:22:59;;;;;;;0.90;0.80;;;22.80;59.20;;;;;;4972962;28;20545;-66
2023/10/15 03:25:26;;;;;;;2.20;1.00;;;22.80;59.30;;;;;;4999473;28;20526;-66
2023/10/15 03:27:54;;;;;;;1.70;1.00;;;22.80;59.30;;;;;;5016452;28;20442;-67
2023/10/15 03:30:23;;;;;;;2.07;1.10;;;22.80;59.30;;;;;;5016753;28;20399;-66
2023/10/15 03:32:52;;;;;;;1.23;1.00;;;22.80;59.30;;;;;;5016278;28;20954;-67
2023/10/15 03:35:27;;;;;;;1.30;0.93;;;22.80;59.30;;;;;;5016253;28;20463;-66
2023/10/15 03:37:59;;;;;;;1.13;0.80;;;22.80;59.20;;;;;;5016560;28;20402;-66
2023/10/15 03:40:32;;;;;;;1.13;1.00;;;22.80;59.20;;;;;;5019083;28;20403;-66
2023/10/15 03:43:15;;;;;;;1.00;0.90;;;22.80;59.20;;;;;;5020531;28;20447;-67
2023/10/15 03:45:53;;;;;;;1.70;1.10;;;22.80;59.20;;;;;;5019957;28;20794;-66
2023/10/15 03:48:32;;;;;;;1.20;0.90;;;22.80;59.20;;;;;;5019788;28;20383;-66
2023/10/15 03:51:00;;;;;;;2.10;1.10;;;22.80;59.20;;;;;;5020317;28;20946;-66
2023/10/15 03:53:28;;;;;;;1.50;1.00;;;22.80;59.20;;;;;;5020084;28;20662;-66
2023/10/15 03:56:04;;;;;;;1.70;1.20;;;22.80;59.20;;;;;;5020412;28;20430;-66
2023/10/15 03:58:33;;;;;;;1.30;1.10;;;22.80;59.20;;;;;;5020125;28;20489;-66
2023/10/15 04:03:35;;;;;;;1.40;1.07;;;22.80;59.20;;;;;;5019621;28;20438;-66
2023/10/15 04:06:05;;;;;;;0.93;0.80;;;22.80;59.20;;;;;;5019761;28;20431;-66
2023/10/15 04:08:31;;;;;;;1.37;0.90;;;22.80;59.20;;;;;;5002106;28;20443;-67
2023/10/15 04:10:57;;;;;;;1.47;1.03;;;22.80;59.20;;;;;;5019867;28;20419;-66
2023/10/15 04:13:26;;;;;;;1.57;1.17;;;22.80;59.20;;;;;;5019541;28;20180;-66
2023/10/15 04:15:52;;;;;;;1.17;0.93;;;22.80;59.20;;;;;;5019425;28;20502;-67
2023/10/15 04:18:17;;;;;;;1.53;1.00;;;22.80;59.20;;;;;;5002208;28;20426;-66
2023/10/15 04:20:43;;;;;;;5.03;1.30;;;22.80;59.20;;;;;;5020006;28;20411;-66
2023/10/15 04:23:12;;;;;;;1.20;1.10;;;22.80;59.20;;;;;;5019535;28;20644;-66
2023/10/15 04:25:38;;;;;;;1.70;1.20;;;22.80;59.20;;;;;;5019448;28;20219;-67
2023/10/15 04:28:09;;;;;;;1.17;1.00;;;22.70;59.10;;;;;;5019288;28;20414;-66
2023/10/15 04:30:38;;;;;;;1.57;1.17;;;22.80;59.20;;;;;;5019069;28;20387;-66
2023/10/15 04:33:13;;;;;;;1.83;1.00;;;22.80;59.20;;;;;;5019328;28;20414;-65
2023/10/15 04:35:42;;;;;;;3.00;0.97;;;22.80;59.20;;;;;;5019261;28;20447;-66
2023/10/15 04:38:07;;;;;;;1.33;1.00;;;22.80;59.20;;;;;;5019471;28;20506;-67
2023/10/15 04:41:21;;;;;;;2.50;1.13;;;22.80;59.20;;;;;;5018795;28;20847;-67
2023/10/15 04:43:26;;;;;;;1.60;1.03;;;22.80;59.20;;;;;;5013053;28;20697;-67
2023/10/15 04:45:57;;;;;;;1.23;1.00;;;22.80;59.20;;;;;;5018983;28;20423;-66
2023/10/15 04:48:27;;;;;;;1.17;1.00;;;22.80;59.20;;;;;;5019264;28;20396;-67
2023/10/15 04:50:53;;;;;;;1.30;1.00;;;22.70;59.20;;;;;;5017964;28;20426;-68
2023/10/15 04:55:47;;;;;;;1.67;0.90;;;22.70;59.10;;;;;;5018918;28;20407;-67
2023/10/15 04:58:13;;;;;;;1.47;1.10;;;22.80;59.20;;;;;;5019095;28;20412;-66
2023/10/15 05:00:40;;;;;;;1.20;1.00;;;22.80;59.20;;;;;;5018584;28;20431;-66
2023/10/15 05:03:06;;;;;;;1.07;0.97;;;22.70;59.20;;;;;;5018049;28;20196;-66
2023/10/15 05:05:32;;;;;;;1.30;0.80;;;22.80;59.20;;;;;;5018188;28;20438;-65
2023/10/15 05:08:00;;;;;;;1.63;1.07;;;22.70;59.10;;;;;;5018646;28;20169;-66
2023/10/15 05:10:33;;;;;;;1.30;0.90;;;22.80;59.20;;;;;;5018177;28;20230;-67
2023/10/15 05:12:59;;;;;;;1.20;0.90;;;22.80;59.20;;;;;;5018607;28;20411;-66
2023/10/15 05:15:25;;;;;;;1.30;1.20;;;22.80;59.20;;;;;;5018421;28;20454;-67
2023/10/15 05:17:51;;;;;;;2.20;1.10;;;22.80;59.20;;;;;;5001010;28;20441;-66
2023/10/15 05:20:20;;;;;;;1.30;0.80;;;22.80;59.20;;;;;;5018142;28;20515;-67
2023/10/15 05:22:49;;;;;;;1.20;0.87;;;22.80;59.20;;;;;;5018136;28;20593;-66
2023/10/15 05:25:17;;;;;;;1.10;0.70;;;22.80;59.20;;;;;;5000833;28;20443;-66
2023/10/15 05:27:52;;;;;;;1.20;0.90;;;22.80;59.20;;;;;;5017934;28;20408;-66
2023/10/15 05:30:19;;;;;;;1.50;0.90;;;22.70;59.10;;;;;;5017841;28;20399;-66
2023/10/15 05:32:45;;;;;;;1.20;0.90;;;22.80;59.20;;;;;;5018965;28;20435;-67
2023/10/15 05:35:11;;;;;;;1.20;1.00;;;22.80;59.20;;;;;;5000606;28;21011;-67
2023/10/15 05:37:39;;;;;;;1.17;0.80;;;22.80;59.20;;;;;;5018135;28;20427;-66
2023/10/15 05:40:06;;;;;;;1.50;0.97;;;22.80;59.20;;;;;;5018157;28;20412;-66
2023/10/15 05:42:32;;;;;;;1.30;1.10;;;22.80;59.20;;;;;;5017870;28;20458;-67
2023/10/15 05:44:58;;;;;;;1.17;0.87;;;22.70;59.10;;;;;;5017847;28;20781;-66
2023/10/15 05:47:24;;;;;;;1.30;1.00;;;22.80;59.20;;;;;;5018117;28;20450;-66
2023/10/15 05:49:49;;;;;;;1.50;1.23;;;22.70;59.10;;;;;;5018643;28;20168;-67
2023/10/15 05:52:15;;;;;;;1.87;1.10;;;22.80;59.20;;;;;;5017490;28;20246;-67
2023/10/15 05:54:41;;;;;;;2.53;1.50;;;22.80;59.20;;;;;;5018131;28;20188;-66
2023/10/15 05:57:07;;;;;;;2.83;1.40;;;22.80;59.30;;;;;;5017480;28;20164;-66
2023/10/15 05:59:36;;;;;;;3.83;1.00;;;22.80;59.30;;;;;;5017717;28;20407;-66
2023/10/15 06:02:04;;;;;;;1.30;1.00;;;22.80;59.30;;;;;;5017783;28;20180;-67
2023/10/15 06:04:33;;;;;;;2.30;1.30;;;22.70;59.20;;;;;;5017844;28;20494;-66
2023/10/15 06:06:58;;;;;;;2.07;1.30;;;22.80;59.40;;;;;;5017398;28;20426;-66
2023/10/15 06:09:24;;;;;;;3.77;1.20;;;22.70;59.20;;;;;;5017613;28;20439;-66
2023/10/15 06:11:50;;;;;;;2.97;1.70;;;22.80;59.40;;;;;;4999990;28;20211;-67
2023/10/15 06:14:16;;;;;;;2.60;1.80;;;22.70;59.20;;;;;;5017021;28;20707;-67
2023/10/15 06:16:42;;;;;;;5.43;1.50;;;22.80;59.10;;;;;;5017203;28;20407;-67
2023/10/15 06:19:10;;;;;;;2.33;1.70;;;22.80;58.90;;;;;;5017707;28;20304;-66
2023/10/15 06:21:36;;;;;;;3.87;1.80;;;22.70;58.50;;;;;;5017720;28;20187;-63
2023/10/15 06:24:02;;;;;;;2.33;1.67;;;22.80;58.40;;;;;;5017123;28;20455;-67
2023/10/15 06:26:28;;;;;;;1.80;1.50;;;22.70;58.20;;;;;;5017789;28;20185;-67
2023/10/15 06:28:54;;;;;;;2.33;1.40;;;22.70;58.10;;;;;;5016925;28;21011;-66
2023/10/15 06:31:19;;;;;;;1.37;1.20;;;22.80;58.20;;;;;;5013001;28;20222;-66
2023/10/15 06:33:45;;;;;;;1.83;1.23;;;22.70;58.10;;;;;;5013744;28;20246;-65
2023/10/15 06:36:10;;;;;;;2.13;1.10;;;22.70;58.10;;;;;;5013444;28;20195;-66
2023/10/15 06:38:36;;;;;;;2.30;1.50;;;22.70;58.10;;;;;;5013994;28;20594;-66
2023/10/15 06:41:01;;;;;;;2.90;1.70;;;22.70;58.10;;;;;;5013553;28;20756;-66
2023/10/15 06:43:28;;;;;;;2.50;1.60;;;22.70;58.10;;;;;;5014300;28;20223;-66
2023/10/15 06:45:53;;;;;;;4.00;1.80;;;22.70;58.10;;;;;;5014477;28;20176;-66
2023/10/15 06:48:22;;;;;;;4.90;1.57;;;22.70;58.20;;;;;;5014437;28;20403;-66
2023/10/15 06:50:48;;;;;;;7.10;2.50;;;22.70;58.20;;;;;;5014301;28;20188;-66
2023/10/15 06:53:14;;;;;;;6.73;2.60;;;22.70;58.20;;;;;;5014944;28;20415;-66
2023/10/15 06:55:39;;;;;;;4.10;2.20;;;22.70;58.10;;;;;;5014633;28;20510;-66
2023/10/15 06:58:05;;;;;;;5.00;2.77;;;22.70;58.20;;;;;;5014688;28;20191;-66
2023/10/15 07:00:36;;;;;;;6.93;2.47;;;22.70;58.30;;;;;;5014965;28;20187;-66
2023/10/15 07:03:02;;;;;;;8.40;3.47;;;22.70;58.30;;;;;;5014365;28;20255;-67
2023/10/15 07:05:28;;;;;;;4.57;2.70;;;22.70;58.40;;;;;;5013874;28;20872;-66
2023/10/15 07:07:56;;;;;;;5.70;3.40;;;22.70;58.50;;;;;;5013869;28;20180;-66
2023/10/15 07:10:22;;;;;;;7.57;3.00;;;22.70;58.50;;;;;;5013655;28;20412;-67
2023/10/15 07:12:51;;;;;;;4.50;2.83;;;22.70;58.50;;;;;;5014688;28;20477;-67
2023/10/15 07:15:20;;;;;;;6.87;2.97;;;22.70;58.60;;;;;;5008377;28;20441;-67
2023/10/15 07:17:46;;;;;;;5.70;3.27;;;22.70;58.60;;;;;;5008991;28;20431;-66
2023/10/15 07:20:17;;;;;;;4.97;2.83;;;22.70;58.70;;;;;;5006971;28;20415;-66
2023/10/15 07:22:48;;;;;;;5.50;3.40;;;22.70;58.70;;;;;;5007255;28;20451;-67
2023/10/15 07:25:16;;;;;;;7.53;3.50;;;22.70;58.70;;;;;;5007730;28;20523;-66
2023/10/15 07:27:45;;;;;;;8.43;3.27;;;22.70;58.80;;;;;;5006860;28;20427;-66
2023/10/15 07:30:19;;;;;;;5.97;4.07;;;22.70;58.80;;;;;;5005019;28;20416;-66
2023/10/15 07:32:45;;;;;;;6.90;3.37;;;22.70;58.90;;;;;;5006808;28;20411;-66
2023/10/15 07:35:13;;;;;;;10.10;3.70;;;22.70;58.90;;;;;;5008020;28;20816;-65
2023/10/15 07:37:45;;;;;;;7.50;3.50;;;22.70;59.50;;;;;;5002991;28;20432;-66
2023/10/15 07:40:19;;;;;;;7.17;3.57;;;22.70;58.90;;;;;;4998086;28;20407;-65
2023/10/15 07:42:48;;;;;;;5.03;3.30;;;22.70;59.00;;;;;;4997751;28;20944;-65
2023/10/15 07:45:15;;;;;;;6.10;3.40;;;22.80;59.10;;;;;;4997550;28;20464;-66
2023/10/15 07:47:41;;;;;;;6.27;3.90;;;22.70;59.00;;;;;;4997143;28;20408;-66
2023/10/15 07:50:24;;;;;;;8.07;3.90;;;22.70;59.00;;;;;;4997260;28;20408;-65
2023/10/15 07:52:51;;;;;;;7.60;3.80;;;22.80;59.10;;;;;;4997619;28;20600;-66
2023/10/15 07:55:17;;;;;;;6.97;3.80;;;22.80;59.10;;;;;;4997362;28;20440;-66
2023/10/15 07:57:43;;;;;;;5.03;3.73;;;22.80;59.20;;;;;;4997325;28;20427;-65
2023/10/15 08:00:22;;;;;;;5.83;4.03;;;22.80;59.20;;;;;;4980395;28;20428;-65
2023/10/15 08:02:52;;;;;;;5.87;4.33;;;22.80;59.20;;;;;;4997567;28;20197;-66
2023/10/15 08:05:21;;;;;;;7.07;4.63;;;22.80;59.20;;;;;;4997831;28;20540;-66
2023/10/15 08:07:48;;;;;;;6.57;3.60;;;22.80;59.20;;;;;;4997488;28;20408;-66
2023/10/15 08:10:14;;;;;;;6.33;4.47;;;22.80;59.20;;;;;;4998298;28;20469;-66
2023/10/15 08:12:40;;;;;;;5.30;3.73;;;22.80;59.80;;;;;;4997906;28;20955;-65
2023/10/15 08:15:07;;;;;;;4.20;3.70;;;22.80;59.20;;;;;;4998010;28;20478;-65
2023/10/15 08:17:33;;;;;;;5.43;3.60;;;22.80;59.20;;;;;;4997640;28;20419;-66
2023/10/15 08:19:59;;;;;;;6.30;3.60;;;22.80;59.20;;;;;;4998033;28;20791;-66
2023/10/15 08:22:25;;;;;;;7.47;4.60;;;22.80;59.20;;;;;;4997704;28;20409;-66
2023/10/15 08:24:51;;;;;;;5.20;3.90;;;22.80;59.20;;;;;;4980212;28;20204;-65
2023/10/15 08:27:16;;;;;;;6.00;4.10;;;22.80;59.20;;;;;;4998189;28;20901;-66
2023/10/15 08:29:42;;;;;;;6.63;3.70;;;22.80;59.20;;;;;;4997978;28;20208;-66
2023/10/15 08:32:14;;;;;;;5.77;3.87;;;22.80;59.20;;;;;;4997687;28;20175;-66
2023/10/15 08:34:39;;;;;;;7.20;3.83;;;22.80;59.20;;;;;;4997574;28;20317;-66
2023/10/15 08:37:07;;;;;;;4.27;3.10;;;22.80;59.20;;;;;;4997738;28;20397;-66
2023/10/15 08:39:33;;;;;;;9.60;5.13;;;22.80;59.20;;;;;;4998089;28;20412;-66
2023/10/15 08:42:00;;;;;;;4.80;3.90;;;22.80;59.10;;;;;;4998086;28;20401;-65
2023/10/15 08:44:27;;;;;;;4.43;3.37;;;22.80;59.20;;;;;;4978519;28;20460;-66
2023/10/15 08:46:53;;;;;;;4.67;3.87;;;22.90;59.30;;;;;;4995351;28;20412;-67
2023/10/15 08:49:20;;;;;;;6.03;4.87;;;22.90;59.90;;;;;;4995349;28;20769;-66
2023/10/15 08:51:47;;;;;;;4.87;3.40;;;22.80;59.20;;;;;;4995249;28;20169;-66
2023/10/15 08:54:14;;;;;;;5.43;3.50;;;22.90;59.20;;;;;;4995438;28;20447;-66
2023/10/15 08:56:40;;;;;;;7.57;3.73;;;22.80;59.20;;;;;;4995414;28;20427;-66
2023/10/15 08:59:09;;;;;;;6.73;4.43;;;22.80;59.20;;;;;;4995288;28;20849;-66
2023/10/15 09:01:36;;;;;;;8.47;4.10;;;22.90;59.30;;;;;;4977042;28;20530;-67
2023/10/15 09:04:04;;;;;;;7.70;4.13;;;22.80;59.30;;;;;;4994740;28;20836;-66
2023/10/15 09:06:30;;;;;;;5.43;3.90;;;22.80;59.20;;;;;;4994489;28;20412;-67
2023/10/15 09:08:56;;;;;;;5.50;3.90;;;22.80;59.20;;;;;;4994710;28;20784;-66
2023/10/15 09:11:21;;;;;;;6.23;3.57;;;22.90;59.20;;;;;;4995047;28;20415;-66
2023/10/15 09:13:51;;;;;;;5.67;3.13;;;22.80;59.00;;;;;;4994779;28;20192;-66
2023/10/15 09:16:17;;;;;;;4.87;3.20;;;22.90;59.10;;;;;;4994721;28;20228;-64
2023/10/15 09:18:44;;;;;;;6.03;3.70;;;22.90;59.10;;;;;;4994382;28;20419;-67
2023/10/15 09:21:11;;;;;;;8.47;3.93;;;22.80;59.10;;;;;;4994430;28;20412;-66
2023/10/15 09:23:42;;;;;;;4.77;2.97;;;22.80;59.00;;;;;;4994002;28;20460;-67
2023/10/15 09:26:08;;;;;;;5.60;3.50;;;22.80;59.10;;;;;;4994335;28;20821;-67
2023/10/15 09:28:35;;;;;;;8.33;4.07;;;22.90;59.20;;;;;;4993916;28;20420;-66
2023/10/15 09:31:09;;;;;;;5.13;3.70;;;22.80;59.10;;;;;;4994028;28;20177;-66
2023/10/15 09:33:35;;;;;;;5.63;3.70;;;22.80;59.10;;;;;;4994058;28;20467;-66
2023/10/15 09:36:04;;;;;;;5.83;3.80;;;22.90;59.20;;;;;;4993547;28;20424;-66
2023/10/15 09:38:33;;;;;;;4.03;3.30;;;22.90;59.20;;;;;;4994237;28;20855;-66
2023/10/15 09:41:03;;;;;;;7.83;3.90;;;22.80;59.10;;;;;;4994152;28;20416;-67
2023/10/15 09:43:31;;;;;;;5.30;3.30;;;22.90;59.20;;;;;;4993986;28;20543;-66
2023/10/15 09:45:58;;;;;;;8.30;4.03;;;22.80;59.10;;;;;;4994173;28;20428;-65
2023/10/15 09:48:25;;;;;;;5.60;3.37;;;22.90;59.20;;;;;;4993936;28;20412;-67
2023/10/15 09:50:53;;;;;;;9.00;3.60;;;22.90;59.20;;;;;;4993801;28;20413;-66
2023/10/15 09:53:21;;;;;;;6.33;3.90;;;22.90;59.20;;;;;;4993696;28;20440;-66
2023/10/15 09:55:48;;;;;;;4.53;3.50;;;22.90;59.20;;;;;;4994104;28;20423;-66
2023/10/15 09:58:15;;;;;;;5.40;4.13;;;22.90;59.20;;;;;;4993603;28;20913;-67
2023/10/15 10:01:17;;;;;;;5.67;3.37;;;22.80;59.10;;;;;;4993489;28;20412;-67
2023/10/15 10:03:48;;;;;;;6.97;4.03;;;22.90;59.20;;;;;;4994003;28;20463;-66
2023/10/15 10:06:33;;;;;;;5.63;3.60;;;22.90;59.20;;;;;;4993783;28;20424;-65
2023/10/15 10:09:04;;;;;;;7.13;4.10;;;22.90;59.20;;;;;;4993769;28;20384;-67
2023/10/15 10:11:54;;;;;;;6.40;3.30;;;22.90;59.20;;;;;;4993403;28;20463;-67
2023/10/15 10:14:54;;;;;;;4.93;3.73;;;22.90;59.20;;;;;;4993602;28;20432;-66
2023/10/15 10:17:21;;;;;;;4.03;3.40;;;22.90;59.20;;;;;;4974879;28;20941;-65
2023/10/15 10:19:52;;;;;;;4.20;3.80;;;22.80;59.70;;;;;;4993371;28;20857;-67
2023/10/15 10:22:23;;;;;;;4.80;3.70;;;22.80;59.10;;;;;;4993580;28;20416;-67
2023/10/15 10:24:50;;;;;;;3.77;3.37;;;22.80;59.20;;;;;;4993103;28;20447;-67
2023/10/15 10:27:16;;;;;;;4.47;3.27;;;22.90;59.20;;;;;;4992978;28;20392;-66
2023/10/15 10:30:03;;;;;;;6.00;4.30;;;22.90;59.20;;;;;;4993430;28;20488;-66
2023/10/15 10:32:28;;;;;;;5.30;3.60;;;22.80;59.10;;;;;;4991792;28;20447;-66
2023/10/15 10:35:14;;;;;;;6.07;3.40;;;22.80;59.10;;;;;;4993231;28;20490;-66
2023/10/15 10:38:00;;;;;;;5.50;3.50;;;22.90;59.10;;;;;;4992992;28;20594;-67
2023/10/15 10:40:51;;;;;;;4.67;3.20;;;22.90;59.10;;;;;;4993530;28;20400;-67
2023/10/15 10:43:19;;;;;;;4.50;3.00;;;22.90;59.10;;;;;;4992814;28;20436;-66
2023/10/15 10:46:01;;;;;;;5.80;3.10;;;22.90;59.10;;;;;;4975644;28;20479;-66
2023/10/15 10:48:29;;;;;;;4.23;3.30;;;22.80;59.60;;;;;;4993017;28;20940;-66
2023/10/15 10:51:13;;;;;;;6.30;3.00;;;22.80;59.10;;;;;;4993426;28;20400;-66
2023/10/15 10:53:39;;;;;;;4.77;3.40;;;22.90;59.10;;;;;;4975918;28;20424;-66
2023/10/15 10:56:07;;;;;;;5.10;2.90;;;22.90;59.10;;;;;;4993734;28;21012;-66
2023/10/15 10:58:36;;;;;;;6.10;3.63;;;22.90;59.10;;;;;;4993272;28;20423;-66
2023/10/15 11:01:02;;;;;;;4.63;3.73;;;22.80;59.00;;;;;;4993624;28;20808;-65
2023/10/15 11:03:29;;;;;;;8.03;4.03;;;22.80;59.00;;;;;;4993342;28;20527;-64
2023/10/15 11:05:55;;;;;;;3.70;2.80;;;22.80;59.10;;;;;;4993538;28;20172;-66
2023/10/15 11:08:22;;;;;;;4.20;3.13;;;22.90;59.50;;;;;;4993206;28;20746;-66
2023/10/15 11:10:49;;;;;;;5.00;3.80;;;22.90;59.10;;;;;;4993098;28;20197;-66
2023/10/15 11:13:15;;;;;;;5.03;3.40;;;22.90;59.20;;;;;;4993218;28;20909;-67
2023/10/15 11:15:49;;;;;;;6.93;3.80;;;22.80;59.10;;;;;;4992965;28;20435;-66
2023/10/15 11:18:20;;;;;;;5.93;3.80;;;22.90;59.20;;;;;;4992958;28;20412;-66
2023/10/15 11:20:47;;;;;;;6.40;4.00;;;22.90;59.20;;;;;;4993092;28;20770;-66
2023/10/15 11:23:12;;;;;;;7.63;3.70;;;22.90;59.20;;;;;;4993018;28;20506;-66
2023/10/15 11:25:38;;;;;;;3.70;3.07;;;22.90;59.20;;;;;;4975813;28;20440;-66
2023/10/15 11:28:06;;;;;;;6.07;3.30;;;22.90;59.20;;;;;;4993080;28;20191;-66
2023/10/15 11:30:35;;;;;;;5.20;4.00;;;22.90;59.10;;;;;;4993491;28;20260;-65
2023/10/15 11:33:01;;;;;;;5.97;3.20;;;22.90;59.10;;;;;;4975598;28;20420;-65
2023/10/15 11:35:33;;;;;;;7.20;3.43;;;22.90;59.00;;;;;;4992736;28;20971;-66
2023/10/15 11:37:59;;;;;;;7.87;3.40;;;22.90;58.90;;;;;;4992772;28;20200;-66
2023/10/15 11:40:25;;;;;;;6.27;3.77;;;22.80;58.80;;;;;;4993183;28;20416;-66
2023/10/15 11:42:51;;;;;;;6.07;2.70;;;22.90;58.80;;;;;;4993135;28;21026;-66
2023/10/15 11:45:31;;;;;;;4.17;3.03;;;22.90;58.80;;;;;;4992288;28;20428;-66
2023/10/15 11:47:57;;;;;;;5.83;2.80;;;22.80;59.20;;;;;;4993369;28;20389;-67
2023/10/15 11:50:24;;;;;;;4.77;3.53;;;22.80;58.60;;;;;;4992884;28;20412;-66
2023/10/15 11:52:52;;;;;;;5.23;3.43;;;22.80;58.50;;;;;;4993308;28;20920;-66
2023/10/15 11:55:22;;;;;;;5.57;3.10;;;22.80;58.50;;;;;;4993470;28;20440;-66
2023/10/15 11:57:51;;;;;;;4.07;2.90;;;22.80;58.40;;;;;;4993124;28;20404;-65
2023/10/15 12:00:33;;;;;;;6.03;2.83;;;22.90;58.40;;;;;;4994786;28;20947;-66
2023/10/15 12:03:05;;;;;;;4.23;2.73;;;22.80;58.20;;;;;;4996531;28;20439;-66
2023/10/15 12:05:32;;;;;;;5.00;2.43;;;22.80;57.90;;;;;;4996588;28;20459;-66
2023/10/15 12:08:03;;;;;;;2.77;2.23;;;22.80;57.90;;;;;;4996292;28;20415;-65
2023/10/15 12:10:29;;;;;;;2.60;2.13;;;22.80;57.80;;;;;;4996275;28;20487;-67
2023/10/15 12:12:54;;;;;;;2.90;2.27;;;22.80;57.90;;;;;;4996369;28;20447;-66
2023/10/15 12:15:20;;;;;;;5.60;2.20;;;22.80;57.90;;;;;;4996599;28;20443;-65
2023/10/15 12:17:45;;;;;;;5.10;2.60;;;22.80;57.90;;;;;;4995928;28;20177;-66
2023/10/15 12:20:13;;;;;;;3.20;2.13;;;22.80;57.90;;;;;;4996398;28;20180;-66
2023/10/15 12:22:39;;;;;;;2.23;1.90;;;22.80;57.90;;;;;;4996556;28;20169;-66
2023/10/15 12:25:06;;;;;;;2.53;2.20;;;22.80;57.90;;;;;;4996598;28;20526;-66
2023/10/15 12:27:32;;;;;;;3.03;2.40;;;22.80;57.90;;;;;;4996369;28;20415;-65
2023/10/15 12:30:03;;;;;;;4.00;1.93;;;22.80;57.90;;;;;;4996805;28;20925;-66
2023/10/15 12:32:28;;;;;;;2.23;1.57;;;22.80;57.80;;;;;;5003175;28;20436;-66
2023/10/15 12:34:54;;;;;;;2.60;1.63;;;22.80;56.80;;;;;;5006237;28;21117;-66
2023/10/15 12:37:23;;;;;;;1.90;1.63;;;22.80;56.10;;;;;;5005950;28;20196;-66
2023/10/15 12:39:51;;;;;;;2.23;2.03;;;22.70;55.20;;;;;;5001763;28;20173;-66
2023/10/15 12:42:21;;;;;;;2.60;1.60;;;22.70;54.60;;;;;;4989871;28;20438;-65
2023/10/15 12:44:47;;;;;;;2.97;1.90;;;22.70;53.60;;;;;;5005077;28;20939;-66
2023/10/15 12:47:13;;;;;;;1.30;1.20;;;22.70;53.60;;;;;;5005653;28;20431;-66
2023/10/15 12:49:39;;;;;;;4.53;1.60;;;22.70;53.40;;;;;;5003382;28;20177;-66
2023/10/15 12:52:08;;;;;;;2.00;1.63;;;22.70;52.90;;;;;;5006873;28;20499;-65
2023/10/15 12:54:34;;;;;;;2.77;1.43;;;22.60;52.70;;;;;;5006237;28;20442;-66
2023/10/15 12:57:00;;;;;;;1.87;1.30;;;22.60;52.70;;;;;;5014822;28;20932;-66
2023/10/15 12:59:25;;;;;;;2.10;1.53;;;22.60;52.60;;;;;;5015093;28;20928;-66
2023/10/15 13:01:51;;;;;;;2.43;1.57;;;22.60;52.70;;;;;;5015143;28;20207;-66
2023/10/15 13:04:17;;;;;;;2.00;1.20;;;22.60;52.50;;;;;;5014770;28;20207;-66
2023/10/15 13:06:43;;;;;;;4.03;1.70;;;22.50;52.40;;;;;;5014600;28;20192;-66
2023/10/15 13:09:09;;;;;;;1.90;1.27;;;22.50;52.20;;;;;;5015016;28;20408;-66
2023/10/15 13:11:35;;;;;;;1.43;1.33;;;22.50;52.40;;;;;;5013396;28;20411;-66
2023/10/15 13:14:01;;;;;;;2.17;1.47;;;22.50;52.30;;;;;;5014934;28;20481;-66
2023/10/15 13:16:26;;;;;;;1.33;1.10;;;22.50;52.40;;;;;;5014764;28;20411;-66